createdAt,value
2022-08-19T00:01:53.818Z,23.12
2022-08-19T00:04:23.149Z,23.11
2022-08-19T00:06:49.847Z,23.11
2022-08-19T00:09:19.254Z,23.11
2022-08-19T00:11:47.377Z,23.08
2022-08-19T00:14:16.091Z,23.04
2022-08-19T00:16:44.217Z,23.02
2022-08-19T00:19:11.092Z,22.98
2022-08-19T00:21:37.717Z,22.95
2022-08-19T00:24:04.558Z,22.93
2022-08-19T00:26:31.233Z,22.93
2022-08-19T00:28:59.139Z,22.96
2022-08-19T00:31:25.703Z,22.97
2022-08-19T00:33:52.242Z,22.99
2022-08-19T00:36:18.814Z,22.99
2022-08-19T00:38:45.678Z,22.96
2022-08-19T00:41:15.472Z,22.94
2022-08-19T00:43:42.068Z,22.91
2022-08-19T00:46:10.157Z,22.90
2022-08-19T00:48:37.047Z,22.88
2022-08-19T00:51:07.396Z,22.87
2022-08-19T00:53:34.068Z,22.89
2022-08-19T00:56:03.212Z,22.89
2022-08-19T00:58:33.290Z,22.89
2022-08-19T01:01:00.608Z,22.89
2022-08-19T01:03:28.618Z,22.90
2022-08-19T01:05:56.365Z,22.88
2022-08-19T01:08:24.017Z,22.83
2022-08-19T01:10:54.505Z,22.83
2022-08-19T01:13:24.118Z,22.81
2022-08-19T01:15:54.706Z,22.76
2022-08-19T01:18:22.540Z,22.74
2022-08-19T01:20:51.638Z,22.71
2022-08-19T01:23:20.778Z,22.68
2022-08-19T01:25:50.412Z,22.71
2022-08-19T01:28:34.312Z,22.73
2022-08-19T01:31:08.353Z,22.74
2022-08-19T01:33:35.148Z,22.71
2022-08-19T01:36:07.764Z,22.71
2022-08-19T01:38:44.017Z,22.73
2022-08-19T01:41:11.819Z,22.77
2022-08-19T01:43:38.384Z,22.79
2022-08-19T01:46:25.184Z,22.82
2022-08-19T01:48:51.854Z,22.85
2022-08-19T01:51:18.450Z,22.87
2022-08-19T01:53:48.275Z,22.89
2022-08-19T01:56:14.979Z,22.90
2022-08-19T01:58:46.047Z,22.88
2022-08-19T02:01:13.367Z,22.87
2022-08-19T02:03:40.066Z,22.88
2022-08-19T02:06:07.034Z,22.87
2022-08-19T02:08:37.486Z,22.87
2022-08-19T02:11:07.832Z,22.89
2022-08-19T02:13:35.461Z,22.90
2022-08-19T02:16:04.289Z,22.91
2022-08-19T02:18:31.183Z,22.93
2022-08-19T02:20:57.765Z,22.91
2022-08-19T02:23:24.331Z,22.88
2022-08-19T02:25:52.477Z,22.85
2022-08-19T02:28:20.497Z,22.82
2022-08-19T02:30:48.662Z,22.78
2022-08-19T02:33:15.711Z,22.73
2022-08-19T02:35:43.133Z,22.67
2022-08-19T02:38:10.021Z,22.61
2022-08-19T02:40:37.886Z,22.54
2022-08-19T02:43:06.328Z,22.45
2022-08-19T02:45:34.736Z,22.37
2022-08-19T02:48:01.382Z,22.31
2022-08-19T02:50:30.053Z,22.27
2022-08-19T02:52:56.669Z,22.23
2022-08-19T02:55:23.299Z,22.18
2022-08-19T02:57:49.973Z,22.13
2022-08-19T03:00:17.163Z,22.10
2022-08-19T03:02:45.171Z,22.07
2022-08-19T03:05:11.971Z,22.05
2022-08-19T03:07:38.627Z,22.05
2022-08-19T03:10:06.492Z,22.01
2022-08-19T03:12:36.960Z,21.95
2022-08-19T03:15:04.740Z,21.92
2022-08-19T03:17:31.391Z,21.89
2022-08-19T03:19:59.567Z,21.84
2022-08-19T03:22:26.161Z,21.86
2022-08-19T03:24:52.712Z,21.85
2022-08-19T03:27:19.264Z,21.85
2022-08-19T03:29:45.771Z,21.86
2022-08-19T03:32:32.133Z,21.83
2022-08-19T03:35:00.268Z,21.84
2022-08-19T03:37:26.815Z,21.88
2022-08-19T03:39:53.472Z,21.91
2022-08-19T03:42:32.991Z,21.90
2022-08-19T03:45:07.862Z,21.88
2022-08-19T03:47:34.478Z,21.88
2022-08-19T03:50:02.976Z,21.87
2022-08-19T03:52:29.541Z,21.83
2022-08-19T03:54:56.142Z,21.81
2022-08-19T03:57:30.648Z,21.78
2022-08-19T04:00:06.846Z,21.75
2022-08-19T04:02:39.938Z,21.73
2022-08-19T04:05:08.566Z,21.69
2022-08-19T04:07:35.124Z,21.67
2022-08-19T04:10:01.702Z,21.70
2022-08-19T04:12:29.102Z,21.69
2022-08-19T04:14:55.681Z,21.70
2022-08-19T04:17:22.210Z,21.69
2022-08-19T04:19:48.891Z,21.68
2022-08-19T04:22:16.837Z,21.68
2022-08-19T04:24:43.404Z,21.65
2022-08-19T04:27:09.959Z,21.64
2022-08-19T04:29:36.496Z,21.62
2022-08-19T04:32:09.142Z,21.61
2022-08-19T04:34:37.171Z,21.63
2022-08-19T04:37:25.404Z,21.63
2022-08-19T04:39:52.007Z,21.63
2022-08-19T04:42:30.867Z,21.64
2022-08-19T04:44:57.780Z,21.67
2022-08-19T04:47:49.115Z,21.66
2022-08-19T04:50:12.243Z,21.65
2022-08-19T04:52:40.423Z,21.63
2022-08-19T04:55:07.537Z,21.63
2022-08-19T04:57:34.191Z,21.64
2022-08-19T05:00:00.757Z,21.65
2022-08-19T05:02:27.321Z,21.67
2022-08-19T05:04:58.114Z,21.70
2022-08-19T05:07:24.674Z,21.71
2022-08-19T05:09:58.215Z,21.72
2022-08-19T05:12:29.177Z,21.71
2022-08-19T05:14:56.802Z,21.71
2022-08-19T05:17:27.522Z,21.72
2022-08-19T05:19:55.540Z,21.73
2022-08-19T05:22:22.127Z,21.76
2022-08-19T05:25:11.283Z,21.76
2022-08-19T05:27:36.927Z,21.87
2022-08-19T05:30:05.108Z,21.89
2022-08-19T05:32:31.745Z,21.92
2022-08-19T05:34:58.311Z,21.98
2022-08-19T05:37:24.888Z,22.02
2022-08-19T05:39:51.834Z,22.09
2022-08-19T05:42:18.508Z,22.16
2022-08-19T05:44:46.487Z,22.27
2022-08-19T05:47:14.421Z,22.35
2022-08-19T05:49:41.398Z,22.42
2022-08-19T05:52:10.609Z,22.53
2022-08-19T05:54:38.896Z,22.66
2022-08-19T05:57:05.498Z,22.79
2022-08-19T05:59:32.115Z,22.89
2022-08-19T06:02:00.008Z,22.95
2022-08-19T06:04:26.614Z,22.98
2022-08-19T06:06:54.605Z,23.05
2022-08-19T06:09:22.539Z,23.10
2022-08-19T06:11:54.110Z,23.09
2022-08-19T06:14:27.929Z,23.10
2022-08-19T06:16:55.259Z,23.13
2022-08-19T06:19:23.995Z,23.15
2022-08-19T06:21:51.703Z,23.18
2022-08-19T06:24:20.732Z,23.24
2022-08-19T06:26:49.922Z,23.25
2022-08-19T06:29:23.426Z,23.27
2022-08-19T06:31:53.018Z,23.32
2022-08-19T06:34:20.279Z,23.37
2022-08-19T06:36:50.381Z,23.45
2022-08-19T06:39:19.086Z,23.54
2022-08-19T06:41:51.791Z,23.52
2022-08-19T06:44:22.710Z,23.55
2022-08-19T06:46:54.867Z,23.61
2022-08-19T06:49:21.882Z,23.71
2022-08-19T06:51:51.790Z,23.78
2022-08-19T06:54:20.265Z,23.81
2022-08-19T06:56:47.457Z,23.86
2022-08-19T06:59:16.567Z,23.90
2022-08-19T07:01:46.300Z,23.93
2022-08-19T07:04:14.954Z,23.93
2022-08-19T07:06:44.377Z,23.93
2022-08-19T07:09:18.423Z,23.93
2022-08-19T07:11:46.652Z,23.93
2022-08-19T07:14:19.400Z,23.92
2022-08-19T07:16:46.594Z,23.94
2022-08-19T07:19:15.913Z,23.95
2022-08-19T07:21:43.162Z,23.89
2022-08-19T07:24:10.011Z,23.88
2022-08-19T07:26:42.957Z,23.91
2022-08-19T07:29:10.513Z,23.96
2022-08-19T07:31:37.132Z,24.03
2022-08-19T07:34:06.216Z,24.05
2022-08-19T07:36:32.882Z,24.06
2022-08-19T07:39:00.715Z,24.05
2022-08-19T07:41:29.041Z,24.02
2022-08-19T07:43:57.149Z,24.00
2022-08-19T07:46:23.721Z,24.00
2022-08-19T07:48:52.211Z,24.03
2022-08-19T07:51:29.541Z,24.03
2022-08-19T07:54:04.726Z,24.02
2022-08-19T07:56:31.619Z,24.02
2022-08-19T07:58:59.482Z,23.99
2022-08-19T08:01:28.269Z,23.99
2022-08-19T08:03:56.817Z,23.96
2022-08-19T08:06:23.541Z,23.89
2022-08-19T08:08:50.131Z,23.86
2022-08-19T08:11:20.895Z,23.83
2022-08-19T08:13:48.637Z,23.80
2022-08-19T08:16:29.898Z,23.77
2022-08-19T08:18:56.712Z,23.75
2022-08-19T08:21:24.251Z,23.74
2022-08-19T08:23:53.185Z,23.73
2022-08-19T08:26:20.974Z,23.75
2022-08-19T08:28:47.959Z,23.73
2022-08-19T08:31:16.079Z,23.74
2022-08-19T08:33:44.215Z,23.74
2022-08-19T08:36:12.213Z,23.73
2022-08-19T08:38:41.019Z,23.69
2022-08-19T08:41:18.567Z,23.70
2022-08-19T08:43:47.242Z,23.66
2022-08-19T08:46:30.490Z,23.64
2022-08-19T08:49:05.960Z,23.60
2022-08-19T08:51:36.430Z,23.60
2022-08-19T08:54:06.962Z,23.57
2022-08-19T08:56:34.205Z,23.58
2022-08-19T08:59:05.362Z,23.60
2022-08-19T09:01:32.095Z,23.64
2022-08-19T09:04:02.795Z,23.67
2022-08-19T09:06:40.583Z,23.70
2022-08-19T09:09:17.925Z,23.72
2022-08-19T09:12:05.231Z,23.71
2022-08-19T09:14:50.281Z,23.73
2022-08-19T09:17:18.537Z,23.75
2022-08-19T09:19:55.688Z,23.78
2022-08-19T09:22:25.570Z,23.81
2022-08-19T09:24:53.314Z,23.81
2022-08-19T09:27:20.327Z,23.84
2022-08-19T09:29:47.018Z,23.82
2022-08-19T09:32:26.441Z,23.82
2022-08-19T09:34:55.372Z,23.87
2022-08-19T09:37:22.331Z,23.91
2022-08-19T09:39:51.941Z,23.92
2022-08-19T09:42:29.715Z,23.93
2022-08-19T09:44:57.198Z,23.97
2022-08-19T09:47:26.620Z,23.96
2022-08-19T09:49:53.179Z,23.99
2022-08-19T09:52:21.250Z,24.00
2022-08-19T09:54:51.982Z,24.01
2022-08-19T09:57:18.848Z,24.05
2022-08-19T09:59:45.423Z,24.09
2022-08-19T10:02:12.049Z,24.10
2022-08-19T10:04:39.333Z,24.12
2022-08-19T10:07:07.021Z,24.13
2022-08-19T10:09:35.784Z,24.13
2022-08-19T10:12:03.773Z,24.13
2022-08-19T10:14:30.689Z,24.12
2022-08-19T10:16:59.231Z,24.10
2022-08-19T10:19:26.470Z,24.14
2022-08-19T10:21:53.526Z,24.12
2022-08-19T10:24:20.197Z,24.08
2022-08-19T10:26:48.434Z,24.10
2022-08-19T10:29:32.897Z,24.14
2022-08-19T10:32:02.635Z,24.17
2022-08-19T10:34:30.841Z,24.21
2022-08-19T10:37:00.593Z,24.25
2022-08-19T10:39:28.656Z,24.28
2022-08-19T10:41:58.876Z,24.28
2022-08-19T10:44:32.304Z,24.31
2022-08-19T10:47:00.394Z,24.30
2022-08-19T10:49:28.020Z,24.29
2022-08-19T10:51:55.153Z,24.27
2022-08-19T10:54:31.142Z,24.27
2022-08-19T10:57:00.586Z,24.37
2022-08-19T10:59:35.282Z,24.43
2022-08-19T11:02:05.888Z,24.48
2022-08-19T11:04:32.585Z,24.47
2022-08-19T11:06:59.130Z,24.42
2022-08-19T11:09:33.699Z,24.44
2022-08-19T11:12:02.805Z,24.51
2022-08-19T11:14:31.323Z,24.51
2022-08-19T11:17:00.680Z,24.52
2022-08-19T11:19:27.398Z,24.52
2022-08-19T11:21:54.504Z,24.53
2022-08-19T11:24:26.251Z,24.55
2022-08-19T11:27:01.119Z,24.61
2022-08-19T11:29:29.270Z,24.66
2022-08-19T11:31:55.947Z,24.66
2022-08-19T11:34:25.847Z,24.69
2022-08-19T11:36:52.696Z,24.63
2022-08-19T11:39:20.959Z,24.61
2022-08-19T11:41:48.109Z,24.61
2022-08-19T11:44:14.990Z,24.62
2022-08-19T11:46:44.265Z,24.58
2022-08-19T11:49:13.973Z,24.58
2022-08-19T11:51:41.640Z,24.60
2022-08-19T11:54:08.370Z,24.65
2022-08-19T11:56:35.057Z,24.68
2022-08-19T11:59:02.158Z,24.69
2022-08-19T12:01:29.068Z,24.69
2022-08-19T12:03:58.166Z,24.67
2022-08-19T12:06:28.052Z,24.67
2022-08-19T12:08:55.226Z,24.66
2022-08-19T12:11:22.272Z,24.67
2022-08-19T12:13:49.045Z,24.68
2022-08-19T12:16:17.743Z,24.70
2022-08-19T12:18:45.319Z,24.75
2022-08-19T12:21:13.717Z,24.83
2022-08-19T12:23:40.744Z,24.88
2022-08-19T12:26:09.481Z,24.87
2022-08-19T12:28:36.522Z,24.86
2022-08-19T12:31:03.200Z,24.87
2022-08-19T12:33:29.931Z,24.89
2022-08-19T12:36:02.109Z,24.91
2022-08-19T12:38:30.080Z,24.89
2022-08-19T12:41:00.175Z,24.89
2022-08-19T12:43:27.295Z,24.87
2022-08-19T12:45:53.957Z,24.86
2022-08-19T12:48:34.246Z,24.87
2022-08-19T12:51:01.969Z,24.83
2022-08-19T12:53:30.061Z,24.81
2022-08-19T12:55:56.775Z,24.79
2022-08-19T12:58:27.206Z,24.78
2022-08-19T13:00:54.641Z,24.74
2022-08-19T13:03:21.759Z,24.70
2022-08-19T13:05:48.402Z,24.69
2022-08-19T13:08:14.961Z,24.65
2022-08-19T13:10:42.910Z,24.62
2022-08-19T13:13:10.480Z,24.57
2022-08-19T13:15:39.221Z,24.58
2022-08-19T13:18:06.007Z,24.58
2022-08-19T13:20:32.764Z,24.60
2022-08-19T13:22:59.316Z,24.53
2022-08-19T13:25:26.458Z,24.49
2022-08-19T13:27:54.490Z,24.50
2022-08-19T13:30:21.442Z,24.48
2022-08-19T13:32:48.911Z,24.51
2022-08-19T13:35:16.946Z,24.49
2022-08-19T13:37:44.146Z,24.50
2022-08-19T13:40:14.392Z,24.55
2022-08-19T13:42:41.310Z,24.55
2022-08-19T13:45:10.419Z,24.55
2022-08-19T13:47:37.214Z,24.55
2022-08-19T13:50:03.971Z,24.59
2022-08-19T13:52:30.592Z,24.59
2022-08-19T13:54:57.356Z,24.60
2022-08-19T13:57:23.944Z,24.66
2022-08-19T13:59:50.558Z,24.71
2022-08-19T14:02:18.496Z,24.80
2022-08-19T14:04:45.157Z,24.91
2022-08-19T14:07:11.768Z,25.01
2022-08-19T14:09:38.317Z,25.11
2022-08-19T14:12:05.564Z,25.20
2022-08-19T14:14:32.224Z,25.24
2022-08-19T14:16:58.780Z,25.29
2022-08-19T14:19:29.994Z,25.28
2022-08-19T14:21:56.995Z,25.29
2022-08-19T14:24:23.558Z,25.28
2022-08-19T14:26:50.109Z,25.28
2022-08-19T14:29:17.207Z,25.21
2022-08-19T14:31:44.042Z,25.16
2022-08-19T14:34:11.437Z,25.13
2022-08-19T14:36:39.503Z,25.12
2022-08-19T14:39:06.459Z,25.07
2022-08-19T14:41:33.052Z,25.06
2022-08-19T14:43:59.819Z,25.06
2022-08-19T14:46:29.604Z,25.06
2022-08-19T14:48:57.070Z,25.04
2022-08-19T14:51:26.972Z,25.00
2022-08-19T14:53:55.174Z,24.95
2022-08-19T14:56:24.605Z,24.98
2022-08-19T14:58:51.263Z,24.97
2022-08-19T15:01:18.772Z,24.96
2022-08-19T15:03:45.373Z,24.93
2022-08-19T15:06:12.802Z,24.90
2022-08-19T15:08:41.887Z,24.80
2022-08-19T15:11:11.885Z,24.75
2022-08-19T15:13:38.885Z,24.72
2022-08-19T15:16:05.935Z,24.65
2022-08-19T15:18:42.123Z,24.56
2022-08-19T15:21:08.749Z,24.51
2022-08-19T15:23:35.426Z,24.42
2022-08-19T15:26:02.119Z,24.37
2022-08-19T15:28:30.121Z,24.35
2022-08-19T15:30:56.702Z,24.29
2022-08-19T15:33:23.236Z,24.26
2022-08-19T15:35:49.957Z,24.21
2022-08-19T15:38:16.533Z,24.20
2022-08-19T15:40:43.118Z,24.15
2022-08-19T15:43:09.855Z,24.08
2022-08-19T15:45:37.911Z,24.04
2022-08-19T15:48:05.083Z,24.02
2022-08-19T15:50:32.283Z,23.98
2022-08-19T15:53:01.353Z,23.94
2022-08-19T15:55:33.301Z,23.88
2022-08-19T15:58:01.809Z,23.77
2022-08-19T16:00:28.407Z,23.69
2022-08-19T16:02:56.354Z,23.68
2022-08-19T16:05:26.531Z,23.64
2022-08-19T16:07:53.386Z,23.57
2022-08-19T16:10:26.429Z,23.55
2022-08-19T16:12:54.367Z,23.51
2022-08-19T16:15:21.276Z,23.50
2022-08-19T16:17:55.434Z,23.48
2022-08-19T16:20:26.046Z,23.46
2022-08-19T16:22:54.502Z,23.46
2022-08-19T16:25:21.142Z,23.43
2022-08-19T16:27:54.243Z,23.43
2022-08-19T16:30:33.691Z,23.41
2022-08-19T16:33:00.288Z,23.42
2022-08-19T16:35:28.223Z,23.41
2022-08-19T16:37:54.900Z,23.37
2022-08-19T16:40:22.798Z,23.30
2022-08-19T16:42:49.606Z,23.22
2022-08-19T16:45:16.183Z,23.21
2022-08-19T16:47:42.780Z,23.17
2022-08-19T16:50:09.657Z,23.15
2022-08-19T16:52:37.619Z,23.14
2022-08-19T16:55:05.279Z,23.12
2022-08-19T16:57:31.973Z,23.11
2022-08-19T16:59:58.568Z,23.09
2022-08-19T17:02:29.499Z,23.05
2022-08-19T17:04:58.785Z,23.04
2022-08-19T17:07:26.972Z,23.04
2022-08-19T17:09:55.177Z,23.04
2022-08-19T17:12:22.198Z,23.03
2022-08-19T17:14:57.565Z,23.01
2022-08-19T17:17:28.785Z,22.98
2022-08-19T17:19:56.021Z,22.97
2022-08-19T17:22:22.746Z,22.96
2022-08-19T17:24:49.417Z,22.96
2022-08-19T17:27:17.328Z,22.94
2022-08-19T17:29:46.917Z,22.90
2022-08-19T17:32:14.055Z,22.87
2022-08-19T17:34:40.834Z,22.85
2022-08-19T17:37:07.458Z,22.81
2022-08-19T17:39:37.149Z,22.81
2022-08-19T17:42:06.787Z,22.80
2022-08-19T17:44:36.391Z,22.80
2022-08-19T17:47:03.156Z,22.80
2022-08-19T17:49:29.783Z,22.78
2022-08-19T17:51:59.414Z,22.76
2022-08-19T17:54:31.910Z,22.76
2022-08-19T17:57:00.442Z,22.74
2022-08-19T17:59:30.091Z,22.72
2022-08-19T18:01:58.206Z,22.68
2022-08-19T18:04:26.189Z,22.68
2022-08-19T18:06:55.100Z,22.68
2022-08-19T18:09:24.590Z,22.65
2022-08-19T18:11:53.671Z,22.62
2022-08-19T18:14:20.854Z,22.62
2022-08-19T18:16:47.407Z,22.61
2022-08-19T18:19:15.370Z,22.59
2022-08-19T18:21:41.938Z,22.57
2022-08-19T18:24:08.582Z,22.55
2022-08-19T18:26:35.161Z,22.54
2022-08-19T18:29:01.791Z,22.52
2022-08-19T18:31:28.533Z,22.51
2022-08-19T18:33:55.219Z,22.51
2022-08-19T18:36:50.120Z,22.50
2022-08-19T18:39:09.806Z,22.47
2022-08-19T18:41:38.936Z,22.48
2022-08-19T18:44:05.470Z,22.46
2022-08-19T18:46:33.036Z,22.45
2022-08-19T18:49:03.586Z,22.44
2022-08-19T18:51:32.071Z,22.44
2022-08-19T18:53:59.318Z,22.46
2022-08-19T18:56:27.715Z,22.46
2022-08-19T18:58:54.690Z,22.47
2022-08-19T19:01:25.042Z,22.47
2022-08-19T19:03:54.630Z,22.49
2022-08-19T19:06:24.519Z,22.47
2022-08-19T19:08:53.751Z,22.44
2022-08-19T19:11:24.606Z,22.44
2022-08-19T19:13:51.406Z,22.44
2022-08-19T19:16:22.429Z,22.45
2022-08-19T19:18:50.939Z,22.45
2022-08-19T19:21:17.713Z,22.43
2022-08-19T19:23:44.274Z,22.41
2022-08-19T19:26:13.268Z,22.40
2022-08-19T19:28:41.239Z,22.39
2022-08-19T19:31:12.721Z,22.39
2022-08-19T19:33:40.012Z,22.40
2022-08-19T19:36:06.813Z,22.39
2022-08-19T19:38:33.415Z,22.41
2022-08-19T19:41:00.111Z,22.40
2022-08-19T19:43:28.093Z,22.39
2022-08-19T19:45:54.804Z,22.38
2022-08-19T19:48:21.375Z,22.37
2022-08-19T19:50:53.937Z,22.37
2022-08-19T19:53:24.102Z,22.37
2022-08-19T19:55:53.720Z,22.39
2022-08-19T19:58:21.277Z,22.40
2022-08-19T20:00:58.051Z,22.38
2022-08-19T20:03:24.785Z,22.36
2022-08-19T20:05:51.391Z,22.37
2022-08-19T20:08:18.552Z,22.34
2022-08-19T20:10:46.024Z,22.33
2022-08-19T20:13:13.016Z,22.33
2022-08-19T20:15:42.626Z,22.33
2022-08-19T20:18:11.658Z,22.33
2022-08-19T20:20:39.119Z,22.31
2022-08-19T20:23:06.228Z,22.28
2022-08-19T20:25:33.260Z,22.29
2022-08-19T20:27:59.901Z,22.28
2022-08-19T20:30:28.557Z,22.26
2022-08-19T20:32:57.672Z,22.23
2022-08-19T20:35:25.693Z,22.22
2022-08-19T20:37:57.555Z,22.20
2022-08-19T20:40:25.030Z,22.19
2022-08-19T20:42:51.656Z,22.18
2022-08-19T20:45:32.136Z,22.15
2022-08-19T20:48:00.173Z,22.15
2022-08-19T20:50:30.179Z,22.14
2022-08-19T20:52:57.634Z,22.13
2022-08-19T20:55:24.825Z,22.12
2022-08-19T20:57:51.640Z,22.14
2022-08-19T21:00:18.820Z,22.14
2022-08-19T21:02:46.483Z,22.15
2022-08-19T21:05:13.104Z,22.15
2022-08-19T21:07:41.082Z,22.15
2022-08-19T21:10:08.383Z,22.13
2022-08-19T21:12:34.986Z,22.11
2022-08-19T21:15:01.633Z,22.09
2022-08-19T21:17:28.223Z,22.06
2022-08-19T21:19:54.788Z,22.03
2022-08-19T21:22:21.433Z,21.97
2022-08-19T21:24:49.374Z,21.96
2022-08-19T21:27:15.926Z,21.94
2022-08-19T21:29:42.511Z,21.93
2022-08-19T21:32:09.116Z,21.91
2022-08-19T21:34:37.068Z,21.90
2022-08-19T21:37:03.832Z,21.89
2022-08-19T21:39:30.624Z,21.87
2022-08-19T21:41:58.524Z,21.89
2022-08-19T21:44:25.079Z,21.90
2022-08-19T21:46:51.708Z,21.91
2022-08-19T21:49:18.283Z,21.95
2022-08-19T21:51:45.383Z,21.97
2022-08-19T21:54:13.980Z,22.00
2022-08-19T21:56:41.358Z,22.03
2022-08-19T21:59:09.308Z,22.06
2022-08-19T22:01:35.854Z,22.08
2022-08-19T22:04:02.428Z,22.09
2022-08-19T22:06:29.024Z,22.12
2022-08-19T22:08:55.749Z,22.13
2022-08-19T22:11:22.432Z,22.14
2022-08-19T22:13:49.181Z,22.16
2022-08-19T22:16:17.291Z,22.17
2022-08-19T22:18:43.841Z,22.19
2022-08-19T22:21:12.226Z,22.21
2022-08-19T22:23:39.626Z,22.21
2022-08-19T22:26:06.262Z,22.22
2022-08-19T22:28:32.954Z,22.22
2022-08-19T22:30:59.492Z,22.22
2022-08-19T22:33:27.853Z,22.22
2022-08-19T22:35:54.473Z,22.22
2022-08-19T22:38:22.326Z,22.21
2022-08-19T22:40:50.343Z,22.21
2022-08-19T22:43:18.590Z,22.20
2022-08-19T22:45:49.092Z,22.18
2022-08-19T22:48:19.728Z,22.15
2022-08-19T22:50:49.300Z,22.15
2022-08-19T22:53:15.844Z,22.12
2022-08-19T22:55:42.432Z,22.10
2022-08-19T22:58:08.986Z,22.09
2022-08-19T23:00:35.664Z,22.06
2022-08-19T23:03:02.295Z,22.04
2022-08-19T23:05:29.277Z,22.02
2022-08-19T23:07:58.397Z,22.00
2022-08-19T23:10:27.806Z,21.97
2022-08-19T23:12:56.477Z,21.96
2022-08-19T23:15:26.857Z,21.94
2022-08-19T23:17:54.874Z,21.93
2022-08-19T23:20:22.757Z,21.92
2022-08-19T23:22:49.563Z,21.90
2022-08-19T23:25:20.090Z,21.89
2022-08-19T23:27:48.197Z,21.85
2022-08-19T23:30:14.790Z,21.80
2022-08-19T23:32:41.373Z,21.77
2022-08-19T23:35:08.650Z,21.74
2022-08-19T23:37:35.245Z,21.72
2022-08-19T23:40:02.112Z,21.72
2022-08-19T23:42:30.062Z,21.70
2022-08-19T23:45:00.839Z,21.67
2022-08-19T23:47:27.367Z,21.65
2022-08-19T23:49:56.284Z,21.63
2022-08-19T23:52:22.837Z,21.61
2022-08-19T23:54:49.423Z,21.58
2022-08-19T23:57:16.027Z,21.57
2022-08-19T23:59:44.646Z,21.54
